Flight Track Log - Related Links

Times and Time Zones

All times are in EDT time to prevent confusion due to time zone crossing. See the SWA1969 flight status page for this flight to view local times or setup timezone preferences in your user account.

Time Position Orientation Groundspeed Altitude Reporting Facility
EDT Latitude Longitude Course Direction KTS MPH feet Rate Location/Type
Sat 12:28:38 PM 27.9667 -82.5333 180° South 168 193 500  Level Tampa TRACON
Sat 12:29:08 PM 27.9500 -82.5333 180° South 169 194 1,600 2,637 Climbing Tampa TRACON
Sat 12:30:09 PM 27.8833 -82.5667 204° Southwest 216 249 4,500 2,777 Climbing Tampa TRACON
Sat 12:31:09 PM 27.8333 -82.6167 221° Southwest 282 325 7,200 2,368 Climbing Tampa TRACON
Sat 12:33:19 PM 27.9756 -82.6981 333° Northwest 304 350 12,000 1,523 Climbing Miami Center
Sat 12:34:22 PM 28.0700 -82.7150 351° North 335 386 12,100 1,872 Climbing Miami Center
Sat 12:35:24 PM 28.1631 -82.7319 351° North 340 391 15,900 3,339 Climbing Miami Center
Sat 12:36:26 PM 28.2578 -82.7511 350° North 340 391 19,000 2,952 Climbing Miami Center
Sat 12:37:28 PM 28.3589 -82.7697 351° North 361 415 22,000 2,592 Climbing Miami Center
Sat 12:38:31 PM 28.4894 -82.7944 351° North 395 455 24,400 2,061 Climbing Miami Center
Sat 12:39:39 PM 28.6111 -82.8217 349° North 403 464 26,500 1,922 Climbing Jacksonville Center
Sat 12:40:39 PM 28.7300 -82.8475 349° North 424 488 28,500 2,000 Climbing Jacksonville Center
Sat 12:41:39 PM 28.8511 -82.8761 348° North 436 502 30,500 2,100 Climbing Jacksonville Center
Sat 12:42:39 PM 28.9783 -82.9044 349° North 447 514 32,700 2,200 Climbing Jacksonville Center
Sat 12:43:39 PM 29.0975 -82.9331 348° North 447 514 34,900 1,850 Climbing Jacksonville Center
Sat 12:44:39 PM 29.2186 -82.9639 347° North 447 514 36,400 1,500 Climbing Jacksonville Center
Sat 12:45:39 PM 29.3417 -82.9975 347° North 452 520 37,900 800 Climbing Jacksonville Center
Sat 12:46:39 PM 29.4606 -83.0286 347° North 447 514 38,000 50 Climbing Jacksonville Center
Sat 12:47:39 PM 29.5983 -83.0669 346° North 440 506 38,000  Level Jacksonville Center
Sat 12:48:39 PM 29.7214 -83.1006 347° North 440 506 38,000  Level Jacksonville Center
Sat 12:49:39 PM 29.8403 -83.1319 347° North 440 506 38,000  Level Jacksonville Center
Sat 12:50:39 PM 29.9594 -83.1633 347° North 445 512 38,000  Level Jacksonville Center
Sat 12:51:39 PM 30.0825 -83.1950 347° North 445 512 38,000  Level Jacksonville Center
Sat 12:52:39 PM 30.2014 -83.2267 347° North 445 512 38,000  Level Jacksonville Center
Sat 12:53:39 PM 30.3203 -83.2583 347° North 445 512 38,000  Level Jacksonville Center
Sat 12:54:39 PM 30.4414 -83.2900 347° North 440 506 38,000  Level Jacksonville Center
Sat 12:55:39 PM 30.5581 -83.3219 347° North 435 501 38,000  Level Jacksonville Center
Sat 12:56:39 PM 30.6792 -83.3467 350° North 435 501 38,000  Level Jacksonville Center
Sat 12:57:39 PM 30.8003 -83.3642 353° North 435 501 38,000  Level Jacksonville Center
Sat 12:58:39 PM 30.9067 -83.3817 352° North 429 494 38,000 350 Level Jacksonville Center
Sat 12:59:39 PM 31.0275 -83.3992 353° North 429 494 38,700 1,000 Climbing Jacksonville Center
Sat 01:00:39 PM 31.1444 -83.4169 353° North 429 494 40,000 650 Climbing Jacksonville Center
Sat 01:01:39 PM 31.2633 -83.4347 353° North 429 494 40,000  Level Jacksonville Center
Sat 01:02:39 PM 31.3803 -83.4522 353° North 429 494 40,000  Level Jacksonville Center
Sat 01:04:59 PM 31.6639 -83.4947 353° North 411 473 40,000  Level Atlanta Center
Sat 01:05:59 PM 31.7831 -83.5136 352° North 416 479 40,000  Level Atlanta Center
Sat 01:06:59 PM 31.8875 -83.5325 351° North 423 487 40,000  Level Atlanta Center
Sat 01:07:59 PM 32.0067 -83.5514 352° North 428 493 40,000  Level Atlanta Center
Sat 01:08:59 PM 32.1194 -83.5706 352° North 422 486 40,000  Level Atlanta Center
Sat 01:09:59 PM 32.2342 -83.5869 353° North 417 480 40,000  Level Atlanta Center
Sat 01:10:59 PM 32.3469 -83.6061 352° North 417 480 40,000  Level Atlanta Center
Sat 01:11:59 PM 32.4661 -83.6228 353° North 417 480 40,000  Level Atlanta Center
Sat 01:12:59 PM 32.5831 -83.6444 351° North 417 480 40,000  Level Atlanta Center
Sat 01:13:59 PM 32.7000 -83.6636 352° North 422 486 40,000  Level Atlanta Center
Sat 01:14:59 PM 32.8169 -83.6828 352° North 427 491 40,000  Level Atlanta Center
Sat 01:15:59 PM 32.9358 -83.6997 353° North 427 491 40,000  Level Atlanta Center
Sat 01:16:59 PM 33.0550 -83.7192 352° North 427 491 40,000  Level Atlanta Center
Sat 01:17:59 PM 33.1739 -83.7386 352° North 427 491 40,000  Level Atlanta Center
Sat 01:18:59 PM 33.2950 -83.7556 353° North 432 497 40,000  Level Atlanta Center
Sat 01:19:59 PM 33.4161 -83.7775 351° North 432 497 40,000  Level Atlanta Center
Sat 01:20:59 PM 33.5372 -83.7944 353° North 432 497 40,000  Level Atlanta Center
Sat 01:21:59 PM 33.6606 -83.8167 351° North 437 503 40,000  Level Atlanta Center
Sat 01:22:59 PM 33.7817 -83.8364 352° North 442 509 40,000  Level Atlanta Center
Sat 01:23:59 PM 33.9028 -83.8561 352° North 442 509 40,000  Level Atlanta Center
Sat 01:24:59 PM 34.0364 -83.8758 353° North 442 509 40,000  Level Atlanta Center
Sat 01:25:59 PM 34.1531 -83.8958 352° North 437 503 40,000  Level Atlanta Center
Sat 01:26:59 PM 34.2722 -83.9156 352° North 432 497 40,000  Level Atlanta Center
Sat 01:27:59 PM 34.3892 -83.9331 353° North 427 491 40,000  Level Atlanta Center
Sat 01:28:59 PM 34.5058 -83.9556 351° North 427 491 40,000  Level Atlanta Center
Sat 01:29:59 PM 34.6228 -83.9731 353° North 427 491 40,000  Level Atlanta Center
Sat 01:30:59 PM 34.7356 -83.9958 351° North 421 484 40,000  Level Atlanta Center
Sat 01:31:59 PM 34.8503 -84.0161 352° North 416 479 40,000  Level Atlanta Center
Sat 01:32:59 PM 34.9650 -84.0336 353° North 416 479 40,000  Level Atlanta Center
Sat 01:33:59 PM 35.0819 -84.0564 351° North 416 479 40,000  Level Atlanta Center
Sat 01:34:59 PM 35.1967 -84.0744 353° North 416 479 40,000  Level Atlanta Center
Sat 01:35:59 PM 35.3114 -84.0922 353° North 416 479 40,000  Level Atlanta Center
Sat 01:36:59 PM 35.4283 -84.1128 352° North 416 479 40,000  Level Atlanta Center
Sat 01:37:59 PM 35.5450 -84.1306 353° North 411 473 40,000  Level Atlanta Center
Sat 01:38:59 PM 35.6619 -84.1511 352° North 411 473 40,000  Level Atlanta Center
Sat 01:39:59 PM 35.7808 -84.1719 352° North 421 484 40,000  Level Atlanta Center
Sat 01:40:59 PM 35.8997 -84.1925 352° North 426 490 40,000  Level Atlanta Center
Sat 01:42:32 PM 36.0828 -84.2233 352° North 426 490 40,000  Level Indianapolis Center
Sat 01:43:34 PM 36.1986 -84.2442 352° North 426 490 40,000  Level Indianapolis Center
Sat 01:44:35 PM 36.3144 -84.2644 352° North 426 490 40,000  Level Indianapolis Center
Sat 01:45:37 PM 36.4306 -84.2842 352° North 425 489 40,000  Level Indianapolis Center
Sat 01:46:38 PM 36.5564 -84.3064 352° North 422 486 40,000  Level Indianapolis Center
Sat 01:47:40 PM 36.6753 -84.3286 351° North 423 487 40,000  Level Indianapolis Center
Sat 01:48:41 PM 36.7922 -84.3481 352° North 423 487 40,000  Level Indianapolis Center
Sat 01:49:43 PM 36.9056 -84.3692 352° North 417 480 40,000 -537 Level Indianapolis Center
Sat 01:50:44 PM 37.0181 -84.3881 352° North 411 473 38,900 -1,463 Descending Indianapolis Center
Sat 01:51:46 PM 37.1314 -84.4083 352° North 411 473 37,000 -1,415 Descending Indianapolis Center
Sat 01:52:47 PM 37.2475 -84.4289 352° North 412 474 36,000 -488 Descending Indianapolis Center
Sat 01:53:49 PM 37.3614 -84.4483 352° North 414 476 36,000  Level Indianapolis Center
Sat 01:54:50 PM 37.4925 -84.4725 352° North 408 470 36,000  Level Indianapolis Center
Sat 01:55:52 PM 37.6031 -84.4936 351° North 405 466 36,000  Level Indianapolis Center
Sat 01:56:53 PM 37.7144 -84.5133 352° North 404 465 36,000  Level Indianapolis Center
Sat 01:57:54 PM 37.8261 -84.5322 352° North 404 465 36,000  Level Indianapolis Center
Sat 01:58:56 PM 37.9375 -84.5536 351° North 404 465 36,000  Level Indianapolis Center
Sat 01:59:57 PM 38.0494 -84.5747 352° North 404 465 36,000  Level Indianapolis Center
Sat 02:00:59 PM 38.1631 -84.5956 352° North 405 466 36,000  Level Indianapolis Center
Sat 02:02:00 PM 38.2747 -84.6161 352° North 407 468 36,000  Level Indianapolis Center
Sat 02:03:01 PM 38.3900 -84.6364 352° North 409 471 36,000  Level Indianapolis Center
Sat 02:04:03 PM 38.5208 -84.6611 352° North 411 473 36,000  Level Indianapolis Center
Sat 02:05:04 PM 38.6325 -84.6828 351° North 409 471 36,000  Level Indianapolis Center
Sat 02:06:06 PM 38.7400 -84.7042 351° North 407 468 36,000  Level Indianapolis Center
Sat 02:07:07 PM 38.8511 -84.7242 352° North 406 467 36,000  Level Indianapolis Center
Sat 02:08:08 PM 38.9694 -84.7450 352° North 405 466 36,000  Level Indianapolis Center
Sat 02:09:10 PM 39.0808 -84.7664 352° North 405 466 36,000  Level Indianapolis Center
Sat 02:10:11 PM 39.1922 -84.7861 352° North 405 466 36,000  Level Indianapolis Center
Sat 02:11:13 PM 39.3044 -84.8078 352° North 405 466 36,000  Level Indianapolis Center
Sat 02:12:14 PM 39.4178 -84.8297 351° North 405 466 36,000  Level Indianapolis Center
Sat 02:13:15 PM 39.5308 -84.8511 352° North 408 470 36,000  Level Indianapolis Center
Sat 02:14:17 PM 39.6442 -84.8722 352° North 408 470 36,000  Level Indianapolis Center
Sat 02:15:18 PM 39.7683 -84.8967 351° North 408 470 36,000  Level Indianapolis Center
Sat 02:16:19 PM 39.8814 -84.9178 352° North 408 470 36,000 -195 Level Indianapolis Center
Sat 02:17:21 PM 39.9931 -84.9397 351° North 408 470 35,600 -634 Descending Indianapolis Center
Sat 02:18:22 PM 40.1047 -84.9617 351° North 408 470 34,700 -1,033 Descending Indianapolis Center
Sat 02:19:23 PM 40.2406 -84.9869 352° North 409 471 33,500 -1,024 Descending Indianapolis Center
Sat 02:20:25 PM 40.3556 -85.0100 351° North 416 479 32,600 -732 Descending Indianapolis Center
Sat 02:21:26 PM 40.4750 -85.0336 351° North 428 493 32,000 -293 Descending Indianapolis Center
Sat 02:22:28 PM 40.5928 -85.0564 352° North 430 495 32,000  Level Indianapolis Center
Sat 02:23:29 PM 40.7100 -85.0792 352° North 430 495 32,000  Level Indianapolis Center
Sat 02:24:30 PM 40.8272 -85.1028 351° North 429 494 32,000  Level Indianapolis Center
Sat 02:25:32 PM 40.9442 -85.1269 351° North 429 494 32,000 -49 Level Indianapolis Center
Sat 02:26:33 PM 41.0617 -85.1503 351° North 429 494 31,900 -1,033 Descending Indianapolis Center
Sat 02:27:34 PM 41.2050 -85.1775 352° North 431 496 29,900 -1,902 Descending Indianapolis Center
Sat 02:28:36 PM 41.3272 -85.2022 351° North 440 506 28,000 -2,049 Descending Indianapolis Center
Sat 02:29:37 PM 41.4525 -85.2278 351° North 452 520 25,700 -1,967 Descending Indianapolis Center
Sat 02:30:38 PM 41.5822 -85.2536 352° North 442 509 24,000 -829 Descending Indianapolis Center
Sat 02:31:40 PM 41.6900 -85.2744 352° North 401 461 24,000 -183 Level Indianapolis Center
Sat 02:32:49 PM 41.8103 -85.3011 351° North 372 428 23,600 -375 Descending Chicago Center
Sat 02:33:00 PM 41.8256 -85.3039 352° North 381 438 23,500 -1,000 Descending Chicago Center
Sat 02:33:13 PM 41.8497 -85.3092 351° North 375 432 23,200 -968 Descending Chicago Center
Sat 02:34:02 PM 41.9275 -85.3247 352° North 378 435 22,500 -982 Descending Chicago Center
Sat 02:35:03 PM 42.0375 -85.3481 351° North 376 433 21,400 -1,068 Descending Chicago Center
Sat 02:35:15 PM 42.0589 -85.3539 349° North 373 429 21,200 -968 Descending Chicago Center
Sat 02:36:05 PM 42.1414 -85.3686 352° North 377 434 20,400 -1,000 Descending Chicago Center
Sat 02:36:15 PM 42.1644 -85.3722 353° North 377 434 20,200 -968 Descending Chicago Center
Sat 02:37:07 PM 42.2428 -85.3911 350° North 372 428 19,400 -1,368 Descending Chicago Center
Sat 02:38:09 PM 42.3406 -85.4089 352° North 356 410 17,600 -1,839 Descending Chicago Center
Sat 02:39:11 PM 42.4347 -85.4292 351° North 349 402 15,600 -1,854 Descending Chicago Center
Sat 02:40:12 PM 42.5261 -85.4317 359° North 333 383 13,800 -2,098 Descending Chicago Center
Sat 02:41:14 PM 42.6281 -85.4072 10° North 310 357 11,300 -1,984 Descending Chicago Center
Sat 02:42:16 PM 42.7033 -85.3678 21° North 292 336 9,700 -2,371 Descending Chicago Center
Sat 02:43:18 PM 42.7725 -85.3344 19° North 271 312 6,400 -2,976 Descending Chicago Center
Sat 02:44:19 PM 42.8431 -85.3369 359° North 261 300 3,600 -1,805 Descending Chicago Center
Sat 02:45:21 PM 42.8908 -85.3758 329° Northwest 222 255 2,700 -871 Descending Chicago Center
Sat 02:46:23 PM 42.8881 -85.4347 266° West 182 209 1,800 -823 Descending Chicago Center
Sat 02:47:25 PM 42.8817 -85.4975 262° West 153 176 1,000 -774 Descending Chicago Center
Sat 02:49:00 PM 42.8808 -85.5228 166° South  Level Estimated

Login

Don't have an account? Register now (free) for customized features, flight alerts, and more!